Time;durP1;ratioP1;P1;durP2;ratioP2;P2;SDS_P1;SDS_P2;PMS_P1;PMS_P2;Temp;Humidity;BMP_temperature;BMP_pressure;BME280_temperature;BME280_humidity;BME280_pressure;Samples;Min_cycle;Max_cycle;Signal;HPM_P1;HPM_P2
2022/12/29 00:00:07;;;;;;;8.27;5.18;;;9.80;99.90;;;;;;5082414;28;20113;-80
2022/12/29 00:02:53;;;;;;;6.28;3.97;;;9.70;99.90;;;;;;5091310;28;20113;-78
2022/12/29 00:05:40;;;;;;;6.93;4.70;;;9.80;99.90;;;;;;5090404;28;20052;-80
2022/12/29 00:08:41;;;;;;;6.72;4.05;;;9.80;99.90;;;;;;5090136;28;20142;-79
2022/12/29 00:11:27;;;;;;;5.70;3.97;;;9.80;99.90;;;;;;5091009;28;20389;-79
2022/12/29 00:17:18;;;;;;;6.55;3.85;;;9.90;99.90;;;;;;5089664;28;20113;-85
2022/12/29 00:36:11;;;;;;;5.38;3.47;;;10.10;99.90;;;;;;5071687;28;20469;-81
2022/12/29 00:44:04;;;;;;;8.07;3.38;;;10.10;99.90;;;;;;5091349;28;20044;-78
2022/12/29 00:45:24;;;;;;;9.30;3.60;;;10.10;99.90;;;;;;5071732;28;20071;-84
2022/12/29 00:48:10;;;;;;;5.15;3.40;;;10.10;99.90;;;;;;5089593;28;20313;-80
2022/12/29 00:50:56;;;;;;;5.28;3.42;;;10.10;99.90;;;;;;5090038;28;20067;-79
2022/12/29 00:53:43;;;;;;;14.63;5.57;;;10.10;99.90;;;;;;5071974;28;20052;-86
2022/12/29 00:56:29;;;;;;;7.85;4.35;;;10.10;99.90;;;;;;5072055;28;20063;-80
2022/12/29 00:59:16;;;;;;;8.68;4.53;;;10.10;99.90;;;;;;5080176;28;20052;-85
2022/12/29 01:02:02;;;;;;;11.13;4.43;;;10.10;99.90;;;;;;5062636;28;20139;-78
2022/12/29 01:04:48;;;;;;;6.70;4.10;;;10.00;99.90;;;;;;5071671;28;20048;-80
2022/12/29 01:07:34;;;;;;;9.95;4.18;;;10.10;99.90;;;;;;5089509;28;20056;-86
2022/12/29 01:10:20;;;;;;;8.65;3.70;;;10.00;99.90;;;;;;5091165;28;20050;-81
2022/12/29 01:13:07;;;;;;;8.75;4.03;;;10.00;99.90;;;;;;5085725;28;20450;-80
2022/12/29 01:15:55;;;;;;;7.97;4.93;;;10.00;99.90;;;;;;5093495;28;20040;-80
2022/12/29 01:18:41;;;;;;;7.40;4.40;;;10.00;99.90;;;;;;5074283;28;20063;-79
2022/12/29 01:21:27;;;;;;;12.13;5.93;;;10.00;99.90;;;;;;5092727;28;20060;-80
2022/12/29 01:24:15;;;;;;;7.97;4.75;;;10.10;99.90;;;;;;5093105;28;20101;-80
2022/12/29 01:27:01;;;;;;;7.18;4.35;;;10.10;99.90;;;;;;5075549;28;20056;-78
2022/12/29 01:29:47;;;;;;;6.78;4.45;;;10.00;99.90;;;;;;5075070;28;20055;-80
2022/12/29 01:32:34;;;;;;;7.28;4.68;;;10.10;99.90;;;;;;5062087;28;20098;-81
2022/12/29 01:35:20;;;;;;;8.75;4.93;;;10.10;99.90;;;;;;5098796;28;20139;-80
2022/12/29 01:38:07;;;;;;;6.20;4.57;;;10.10;99.90;;;;;;5098287;28;20100;-79
2022/12/29 01:40:53;;;;;;;6.68;4.15;;;10.10;99.90;;;;;;5079090;28;20056;-80
2022/12/29 01:43:45;;;;;;;6.78;4.35;;;10.10;99.90;;;;;;5074807;28;20063;-78
2022/12/29 01:46:38;;;;;;;7.00;4.47;;;10.20;99.90;;;;;;5078347;28;20118;-80
2022/12/29 01:49:29;;;;;;;8.20;4.03;;;10.10;99.90;;;;;;5075005;28;20377;-82
2022/12/29 01:52:15;;;;;;;6.43;4.00;;;10.10;99.90;;;;;;5092878;28;20098;-78
2022/12/29 01:55:03;;;;;;;6.53;4.47;;;10.10;99.90;;;;;;5093135;28;20407;-78
2022/12/29 01:57:52;;;;;;;6.38;4.40;;;10.10;99.90;;;;;;5093226;28;20062;-78
2022/12/29 02:00:39;;;;;;;6.60;4.57;;;10.10;99.90;;;;;;5076549;28;20788;-78
2022/12/29 02:03:27;;;;;;;7.78;4.38;;;10.00;99.90;;;;;;5093169;28;20055;-78
2022/12/29 02:06:25;;;;;;;9.82;4.55;;;10.00;99.90;;;;;;5073525;28;20052;-77
2022/12/29 02:09:11;;;;;;;7.78;4.30;;;9.90;99.90;;;;;;5074984;28;20415;-76
2022/12/29 02:11:59;;;;;;;8.60;3.80;;;9.90;99.90;;;;;;5100131;28;20040;-81
2022/12/29 02:14:47;;;;;;;7.68;4.57;;;9.80;99.90;;;;;;5074714;28;20412;-79
2022/12/29 02:17:52;;;;;;;9.88;3.85;;;9.90;99.90;;;;;;5092427;28;20484;-77
2022/12/29 02:20:47;;;;;;;6.78;3.88;;;9.80;99.90;;;;;;5074116;28;20048;-80
2022/12/29 02:23:59;;;;;;;8.25;5.13;;;9.80;99.90;;;;;;5074602;28;20169;-78
2022/12/29 02:27:00;;;;;;;10.57;4.32;;;9.80;99.90;;;;;;5092518;28;20059;-78
2022/12/29 02:30:07;;;;;;;8.98;4.93;;;9.80;99.90;;;;;;5092791;28;20047;-78
2022/12/29 02:33:08;;;;;;;12.13;4.78;;;9.80;99.90;;;;;;5093368;28;20048;-83
2022/12/29 02:36:12;;;;;;;10.00;3.75;;;9.80;99.90;;;;;;5094655;28;20060;-79
2022/12/29 02:39:11;;;;;;;4.22;2.20;;;9.70;99.90;;;;;;5091947;28;20101;-78
2022/12/29 02:42:03;;;;;;;6.55;2.10;;;9.70;99.90;;;;;;5091513;28;20090;-77
2022/12/29 02:44:49;;;;;;;4.03;1.85;;;9.70;99.90;;;;;;5092867;28;20044;-77
2022/12/29 02:47:48;;;;;;;4.25;1.00;;;9.60;99.90;;;;;;5074435;28;20048;-87
2022/12/29 02:51:00;;;;;;;3.67;0.98;;;9.60;99.90;;;;;;5078589;28;20538;-78
2022/12/29 02:56:51;;;;;;;2.60;0.50;;;9.40;99.90;;;;;;5073346;28;20094;-77
2022/12/29 02:59:37;;;;;;;3.35;0.52;;;9.20;99.90;;;;;;5073110;28;20044;-82
2022/12/29 03:02:43;;;;;;;1.73;0.60;;;9.20;99.90;;;;;;5072473;28;20458;-83
2022/12/29 03:05:59;;;;;;;1.20;0.40;;;9.20;99.90;;;;;;5076230;28;20090;-78
2022/12/29 03:09:00;;;;;;;1.55;0.30;;;9.20;99.90;;;;;;5091738;28;20056;-80
2022/12/29 03:12:10;;;;;;;1.13;0.30;;;9.10;99.90;;;;;;5091889;28;20052;-78
2022/12/29 03:18:18;;;;;;;1.92;0.38;;;9.10;99.90;;;;;;5078669;28;20044;-78
2022/12/29 03:21:14;;;;;;;0.55;0.30;;;9.00;99.90;;;;;;5060342;28;20063;-82
2022/12/29 03:24:00;;;;;;;2.38;0.85;;;9.00;99.90;;;;;;5060864;28;20052;-80
2022/12/29 03:26:48;;;;;;;3.65;1.00;;;8.90;99.90;;;;;;5091694;28;20121;-78
2022/12/29 03:29:57;;;;;;;4.35;1.60;;;9.00;99.90;;;;;;5075935;28;20101;-78
2022/12/29 03:32:54;;;;;;;3.75;1.90;;;9.00;99.90;;;;;;5090733;28;20064;-78
2022/12/29 03:35:44;;;;;;;6.50;2.63;;;9.10;99.90;;;;;;5090520;28;20051;-77
2022/12/29 03:39:07;;;;;;;5.70;2.20;;;9.10;99.90;;;;;;5075717;28;20052;-78
2022/12/29 03:42:01;;;;;;;8.20;2.75;;;9.10;99.90;;;;;;5093032;28;20464;-77
2022/12/29 03:44:47;;;;;;;9.43;2.42;;;9.10;99.90;;;;;;5072770;28;20044;-79
2022/12/29 03:47:33;;;;;;;12.23;2.47;;;9.10;99.90;;;;;;5089749;28;20044;-81
2022/12/29 03:50:20;;;;;;;11.05;2.10;;;9.10;99.90;;;;;;5071823;28;20659;-81
2022/12/29 03:53:06;;;;;;;10.95;2.33;;;9.00;99.90;;;;;;5090385;28;20056;-76
2022/12/29 03:55:52;;;;;;;11.00;2.90;;;9.00;99.90;;;;;;5090922;28;20051;-79
2022/12/29 03:58:38;;;;;;;10.45;2.40;;;9.00;99.90;;;;;;5073090;28;20055;-79
2022/12/29 04:01:25;;;;;;;9.52;1.70;;;9.00;99.90;;;;;;5092029;28;20120;-77
2022/12/29 04:04:11;;;;;;;10.32;3.03;;;9.00;99.90;;;;;;5074868;28;20055;-79
2022/12/29 04:06:57;;;;;;;7.13;1.88;;;8.90;99.90;;;;;;5075289;28;20135;-78
2022/12/29 04:09:43;;;;;;;9.05;1.67;;;8.90;99.90;;;;;;5092680;28;20563;-78
2022/12/29 04:12:29;;;;;;;7.28;2.03;;;8.90;99.90;;;;;;5092977;28;20137;-81
2022/12/29 04:15:16;;;;;;;9.48;1.40;;;8.80;99.90;;;;;;5077017;28;20048;-80
2022/12/29 04:18:02;;;;;;;6.97;1.73;;;8.80;99.90;;;;;;5091848;28;20143;-83
2022/12/29 04:21:00;;;;;;;4.75;1.20;;;8.70;99.90;;;;;;5091492;28;20396;-80
2022/12/29 04:23:46;;;;;;;8.35;2.17;;;8.70;99.90;;;;;;5092445;28;20098;-80
2022/12/29 04:26:32;;;;;;;6.95;1.75;;;8.80;99.90;;;;;;5071724;28;20084;-78
2022/12/29 04:29:19;;;;;;;7.65;1.83;;;8.70;99.90;;;;;;5072862;28;20052;-82
2022/12/29 04:32:05;;;;;;;4.45;1.50;;;8.80;99.90;;;;;;5077007;28;20106;-78
2022/12/29 04:34:52;;;;;;;6.05;1.38;;;8.80;99.90;;;;;;5102974;28;20063;-78
2022/12/29 04:37:38;;;;;;;8.75;2.10;;;8.80;99.90;;;;;;5103786;28;20052;-79
2022/12/29 04:40:25;;;;;;;9.95;1.95;;;8.80;99.90;;;;;;5074672;28;20047;-79
2022/12/29 04:43:11;;;;;;;7.45;1.88;;;8.70;99.90;;;;;;5072785;28;20051;-77
2022/12/29 04:45:57;;;;;;;13.40;2.40;;;8.70;99.90;;;;;;5071701;28;20055;-83
2022/12/29 04:48:43;;;;;;;14.55;1.80;;;8.70;99.90;;;;;;5072817;28;20055;-78
2022/12/29 04:51:29;;;;;;;11.30;2.42;;;8.70;99.90;;;;;;5089090;28;20056;-79
2022/12/29 04:54:16;;;;;;;17.08;2.33;;;8.60;99.90;;;;;;5089325;28;20048;-78
2022/12/29 04:57:02;;;;;;;12.35;2.40;;;8.60;99.90;;;;;;5089933;28;20075;-79
2022/12/29 04:59:48;;;;;;;14.15;2.92;;;8.60;99.90;;;;;;5090480;28;20040;-77
2022/12/29 05:02:35;;;;;;;17.33;2.05;;;8.60;99.90;;;;;;5072770;28;20094;-79
2022/12/29 05:05:23;;;;;;;13.38;2.72;;;8.60;99.90;;;;;;5090940;28;20134;-78
2022/12/29 05:08:09;;;;;;;15.75;2.88;;;8.70;99.90;;;;;;5058365;28;20127;-79
2022/12/29 05:10:55;;;;;;;22.08;3.25;;;8.70;99.90;;;;;;5092727;28;20058;-77
2022/12/29 05:13:45;;;;;;;23.85;3.35;;;8.70;99.90;;;;;;5094398;28;20051;-78
2022/12/29 05:16:31;;;;;;;22.50;3.83;;;8.60;99.90;;;;;;5077476;28;20498;-77
2022/12/29 05:19:18;;;;;;;18.88;3.90;;;8.60;99.90;;;;;;5096158;28;20078;-78
2022/12/29 05:22:04;;;;;;;20.58;3.95;;;8.60;99.90;;;;;;5077295;28;20411;-86
2022/12/29 05:24:50;;;;;;;30.60;4.32;;;8.60;99.90;;;;;;5071993;28;20060;-79
2022/12/29 05:27:36;;;;;;;31.85;4.30;;;8.70;99.90;;;;;;5090553;28;20048;-82
2022/12/29 05:30:23;;;;;;;28.33;3.70;;;8.70;99.90;;;;;;5072034;28;20055;-82
2022/12/29 05:33:11;;;;;;;24.20;4.18;;;8.80;99.90;;;;;;5056767;28;20105;-79
2022/12/29 05:36:04;;;;;;;23.70;3.58;;;8.90;99.90;;;;;;5088982;28;20051;-85
2022/12/29 05:38:50;;;;;;;24.08;3.92;;;8.90;99.90;;;;;;5071253;28;20055;-78
2022/12/29 05:41:36;;;;;;;19.42;3.28;;;8.80;99.90;;;;;;5070193;28;20044;-80
2022/12/29 05:44:23;;;;;;;54.10;4.93;;;8.80;99.90;;;;;;5071355;28;20080;-84
2022/12/29 05:47:09;;;;;;;32.50;4.63;;;8.80;99.90;;;;;;5056932;28;20105;-77
2022/12/29 05:49:55;;;;;;;21.08;4.20;;;8.70;99.90;;;;;;5071581;28;20055;-82
2022/12/29 05:52:41;;;;;;;26.83;3.63;;;8.70;99.90;;;;;;5088981;28;20052;-81
2022/12/29 05:55:27;;;;;;;17.35;3.40;;;8.70;99.90;;;;;;5070738;28;20056;-80
2022/12/29 05:58:15;;;;;;;32.80;3.28;;;8.70;99.90;;;;;;5074791;28;20133;-77
2022/12/29 06:01:01;;;;;;;16.75;2.72;;;8.70;99.90;;;;;;5093718;28;20054;-81
2022/12/29 06:03:47;;;;;;;13.30;2.78;;;8.70;99.90;;;;;;5099079;28;20415;-76
2022/12/29 06:06:33;;;;;;;22.73;3.70;;;8.70;99.90;;;;;;5102153;28;20086;-76
2022/12/29 06:09:19;;;;;;;22.50;4.53;;;8.70;99.90;;;;;;5097156;28;20056;-81
2022/12/29 06:12:06;;;;;;;13.65;3.15;;;8.70;99.90;;;;;;5072049;28;20079;-82
2022/12/29 06:14:52;;;;;;;15.20;2.97;;;8.70;99.90;;;;;;5089389;28;20415;-80
2022/12/29 06:17:39;;;;;;;27.52;3.67;;;8.70;99.90;;;;;;5074284;28;20056;-79
2022/12/29 06:20:25;;;;;;;19.48;3.08;;;8.70;99.90;;;;;;5074361;28;20056;-83
2022/12/29 06:23:13;;;;;;;17.17;3.40;;;8.70;99.90;;;;;;5075118;28;20052;-85
2022/12/29 06:25:59;;;;;;;23.98;3.20;;;8.70;99.90;;;;;;5074949;28;20062;-78
2022/12/29 06:28:45;;;;;;;13.88;3.03;;;8.70;99.90;;;;;;5093166;28;20052;-85
2022/12/29 06:31:31;;;;;;;22.70;3.85;;;8.80;99.90;;;;;;5074854;28;20483;-80
2022/12/29 06:34:17;;;;;;;18.70;3.70;;;8.80;99.90;;;;;;5092849;28;20043;-77
2022/12/29 06:37:03;;;;;;;15.40;2.97;;;8.80;99.90;;;;;;5091597;28;20051;-77
2022/12/29 06:39:50;;;;;;;18.42;2.90;;;8.70;99.90;;;;;;5077728;28;20431;-80
2022/12/29 06:42:36;;;;;;;16.85;3.80;;;8.70;99.90;;;;;;5091569;28;20048;-83
2022/12/29 06:45:22;;;;;;;21.08;5.25;;;8.60;99.90;;;;;;5091561;28;20488;-77
2022/12/29 06:48:08;;;;;;;17.83;2.58;;;8.60;99.90;;;;;;5091897;28;20567;-78
2022/12/29 06:50:54;;;;;;;21.38;5.40;;;8.60;99.90;;;;;;5073420;28;20060;-82
2022/12/29 06:53:41;;;;;;;25.38;3.72;;;8.60;99.90;;;;;;5092094;28;20044;-81
2022/12/29 06:56:27;;;;;;;25.40;4.00;;;8.60;99.90;;;;;;5073835;28;20380;-84
2022/12/29 06:59:13;;;;;;;33.17;4.20;;;8.60;99.90;;;;;;5078046;28;20040;-80
2022/12/29 07:02:01;;;;;;;28.35;6.13;;;8.60;99.90;;;;;;5081920;28;20048;-83
2022/12/29 07:04:47;;;;;;;18.67;3.90;;;8.50;99.90;;;;;;5095166;28;20113;-84
2022/12/29 07:07:33;;;;;;;30.05;4.82;;;8.50;99.90;;;;;;5072211;28;20563;-83
2022/12/29 07:10:20;;;;;;;31.25;6.35;;;8.60;99.90;;;;;;5073988;28;20504;-80
2022/12/29 07:13:09;;;;;;;19.83;5.35;;;8.60;99.90;;;;;;5063142;28;20408;-82
2022/12/29 07:15:55;;;;;;;26.45;6.15;;;8.60;99.90;;;;;;5090754;28;20059;-83
2022/12/29 07:18:42;;;;;;;19.33;3.90;;;8.60;99.90;;;;;;5073885;28;20105;-77
2022/12/29 07:21:28;;;;;;;23.33;4.43;;;8.60;99.90;;;;;;5074528;28;20044;-79
2022/12/29 07:24:14;;;;;;;25.70;4.38;;;8.60;99.90;;;;;;5072975;28;20056;-81
2022/12/29 07:27:00;;;;;;;29.55;5.68;;;8.60;99.90;;;;;;5091183;28;20412;-78
2022/12/29 07:29:46;;;;;;;25.27;5.18;;;8.60;99.90;;;;;;5072288;28;20048;-77
2022/12/29 07:32:34;;;;;;;24.75;4.43;;;8.70;99.90;;;;;;5073527;28;20052;-80
2022/12/29 07:35:20;;;;;;;22.42;6.47;;;8.70;99.90;;;;;;5072867;28;20650;-84
2022/12/29 07:38:06;;;;;;;32.15;5.45;;;8.80;99.90;;;;;;5071764;28;20078;-80
2022/12/29 07:40:58;;;;;;;22.80;4.70;;;8.80;99.90;;;;;;5090402;28;20127;-80
2022/12/29 07:43:47;;;;;;;28.77;5.10;;;8.80;99.90;;;;;;5058325;28;20060;-83
2022/12/29 07:46:34;;;;;;;27.45;4.32;;;8.70;99.90;;;;;;5090136;28;20052;-79
2022/12/29 07:49:20;;;;;;;33.58;4.47;;;8.70;99.90;;;;;;5090189;28;20056;-81
2022/12/29 07:52:06;;;;;;;32.22;5.32;;;8.70;99.90;;;;;;5071745;28;20056;-86
2022/12/29 07:54:52;;;;;;;23.88;5.05;;;8.80;99.90;;;;;;5095622;28;20083;-80
2022/12/29 07:57:38;;;;;;;32.95;4.63;;;8.90;99.90;;;;;;5077434;28;20872;-80
2022/12/29 08:00:25;;;;;;;25.02;4.55;;;8.90;99.90;;;;;;5076198;28;20052;-84
2022/12/29 08:03:11;;;;;;;22.73;4.40;;;8.90;99.90;;;;;;5072946;28;20052;-81
2022/12/29 08:05:57;;;;;;;18.95;4.38;;;8.90;99.90;;;;;;5071875;28;20059;-79
2022/12/29 08:08:43;;;;;;;19.05;5.45;;;9.00;99.90;;;;;;5072549;28;20052;-83
2022/12/29 08:11:30;;;;;;;25.42;4.78;;;9.00;99.90;;;;;;5093486;28;20054;-78
2022/12/29 08:14:16;;;;;;;25.88;5.47;;;9.00;99.90;;;;;;5093209;28;20488;-78
2022/12/29 08:17:02;;;;;;;24.30;4.60;;;9.00;99.90;;;;;;5071861;28;20130;-79
2022/12/29 08:19:48;;;;;;;30.00;6.20;;;9.00;99.90;;;;;;5089214;28;20052;-78
2022/12/29 08:22:34;;;;;;;22.88;4.20;;;8.90;99.90;;;;;;5090117;28;20233;-77
2022/12/29 08:25:21;;;;;;;20.85;4.10;;;8.90;99.90;;;;;;5089220;28;20048;-78
2022/12/29 08:28:07;;;;;;;26.55;4.65;;;8.90;99.90;;;;;;5090653;28;20044;-79
2022/12/29 08:30:53;;;;;;;27.17;4.28;;;8.80;99.90;;;;;;5071723;28;20484;-78
2022/12/29 08:33:40;;;;;;;20.52;4.50;;;8.80;99.90;;;;;;5071758;28;20500;-80
2022/12/29 08:36:26;;;;;;;28.02;4.93;;;8.80;99.90;;;;;;5090312;28;20415;-79
2022/12/29 08:39:12;;;;;;;24.60;4.20;;;8.80;99.90;;;;;;5090415;28;20048;-79
2022/12/29 08:41:58;;;;;;;26.10;5.13;;;8.80;99.90;;;;;;5090219;28;20044;-86
2022/12/29 08:44:45;;;;;;;35.88;5.68;;;8.80;99.90;;;;;;5095444;28;20139;-79
2022/12/29 08:47:31;;;;;;;26.17;5.30;;;8.70;99.90;;;;;;5089912;28;20048;-82
2022/12/29 08:50:17;;;;;;;28.55;6.35;;;8.70;99.90;;;;;;5075577;28;20759;-78
2022/12/29 08:53:03;;;;;;;28.10;4.80;;;8.60;99.90;;;;;;5071545;28;20052;-76
2022/12/29 08:55:56;;;;;;;26.48;5.55;;;8.50;99.90;;;;;;5090188;28;20214;-82
2022/12/29 08:58:43;;;;;;;25.25;5.03;;;8.60;99.90;;;;;;5071786;28;20083;-79
2022/12/29 09:01:30;;;;;;;35.78;6.47;;;8.50;99.90;;;;;;5089978;28;20048;-78
2022/12/29 09:04:16;;;;;;;33.53;5.05;;;8.50;99.90;;;;;;5088743;28;20457;-79
2022/12/29 09:07:02;;;;;;;39.05;7.30;;;8.40;99.90;;;;;;5089771;28;20462;-83
2022/12/29 09:09:49;;;;;;;25.95;4.97;;;8.40;99.90;;;;;;5072188;28;20048;-83
2022/12/29 09:12:35;;;;;;;33.45;5.75;;;8.30;99.90;;;;;;5061187;28;20063;-83
2022/12/29 09:15:21;;;;;;;26.63;4.40;;;8.50;99.90;;;;;;5074354;28;20589;-83
2022/12/29 09:18:11;;;;;;;40.42;5.97;;;8.50;99.90;;;;;;5058151;28;20798;-85
2022/12/29 09:21:03;;;;;;;37.70;5.45;;;8.60;99.90;;;;;;5071029;28;20492;-81
2022/12/29 09:23:49;;;;;;;27.75;4.82;;;8.60;99.90;;;;;;5098827;28;20059;-78
2022/12/29 09:26:36;;;;;;;27.17;5.63;;;8.70;99.90;;;;;;5091949;28;20055;-81
2022/12/29 09:29:22;;;;;;;29.23;5.60;;;8.70;99.90;;;;;;5089363;28;20389;-82
2022/12/29 09:32:08;;;;;;;31.27;6.32;;;8.70;99.90;;;;;;5091574;28;20054;-81
2022/12/29 09:34:55;;;;;;;28.63;5.18;;;8.70;99.90;;;;;;5075553;28;20423;-80
2022/12/29 09:37:41;;;;;;;34.22;4.75;;;8.70;99.90;;;;;;5075329;28;20059;-83
2022/12/29 09:40:31;;;;;;;30.70;6.40;;;8.70;99.90;;;;;;5075437;28;20048;-83
2022/12/29 09:43:29;;;;;;;29.58;6.20;;;8.60;99.90;;;;;;5093282;28;20048;-80
2022/12/29 09:46:50;;;;;;;32.28;6.30;;;8.60;99.90;;;;;;5093635;28;20052;-84
2022/12/29 09:49:52;;;;;;;32.10;6.10;;;8.40;99.90;;;;;;5073703;28;20056;-77
2022/12/29 09:52:48;;;;;;;29.52;7.22;;;8.30;99.90;;;;;;5075091;28;20488;-78
2022/12/29 09:55:45;;;;;;;32.85;5.03;;;8.10;99.90;;;;;;5074494;28;20048;-77
2022/12/29 09:58:40;;;;;;;32.60;6.10;;;8.10;99.90;;;;;;5076845;28;20108;-81
2022/12/29 10:01:42;;;;;;;32.75;5.22;;;8.10;99.90;;;;;;5096242;28;20127;-87
2022/12/29 10:04:29;;;;;;;29.95;3.92;;;8.00;99.90;;;;;;5085119;28;20040;-77
2022/12/29 10:07:59;;;;;;;24.95;3.88;;;8.00;99.90;;;;;;5092969;28;20044;-82
2022/12/29 10:10:56;;;;;;;21.40;3.70;;;8.00;99.90;;;;;;5060009;28;20077;-78
2022/12/29 10:14:17;;;;;;;23.80;3.40;;;8.00;99.90;;;;;;5091881;28;20094;-79
2022/12/29 10:17:41;;;;;;;20.48;3.05;;;7.90;99.90;;;;;;5091723;28;20056;-75
2022/12/29 10:20:45;;;;;;;16.20;3.42;;;8.00;99.90;;;;;;5074281;28;20105;-82
2022/12/29 10:23:44;;;;;;;24.85;4.30;;;8.10;99.90;;;;;;5093535;28;20044;-78
2022/12/29 10:26:37;;;;;;;29.20;5.13;;;8.20;99.90;;;;;;5074123;28;20138;-81
2022/12/29 10:29:35;;;;;;;34.00;4.90;;;8.30;99.90;;;;;;5092311;28;20056;-84
2022/12/29 10:32:30;;;;;;;31.65;4.65;;;8.30;99.90;;;;;;5092539;28;20059;-78
2022/12/29 10:35:50;;;;;;;24.70;5.35;;;8.40;99.90;;;;;;5096920;28;20496;-86
2022/12/29 10:38:51;;;;;;;37.15;5.07;;;8.50;99.90;;;;;;5059452;28;20067;-83
2022/12/29 10:41:48;;;;;;;33.17;6.03;;;8.50;99.90;;;;;;5092601;28;20060;-81
2022/12/29 10:44:34;;;;;;;34.25;8.00;;;8.60;99.90;;;;;;5073873;28;20052;-85
2022/12/29 10:47:25;;;;;;;38.53;5.60;;;8.60;99.90;;;;;;5091962;28;20504;-78
2022/12/29 10:50:13;;;;;;;36.50;6.13;;;8.80;99.90;;;;;;5074021;28;20142;-79
2022/12/29 10:53:02;;;;;;;39.30;7.40;;;8.70;99.90;;;;;;5093059;28;20565;-81
2022/12/29 10:55:50;;;;;;;35.17;5.50;;;8.60;99.90;;;;;;5091372;28;20056;-81
2022/12/29 10:58:36;;;;;;;38.80;6.82;;;8.60;99.90;;;;;;5092609;28;20048;-79
2022/12/29 11:01:29;;;;;;;44.58;7.15;;;8.60;99.90;;;;;;5092734;28;20044;-82
2022/12/29 11:04:47;;;;;;;37.05;5.78;;;8.60;99.90;;;;;;5073204;28;20067;-85
2022/12/29 11:07:33;;;;;;;38.85;5.85;;;8.60;99.90;;;;;;5094075;28;20103;-81
2022/12/29 11:10:40;;;;;;;32.50;6.35;;;8.70;99.90;;;;;;5075577;28;20048;-80
2022/12/29 11:13:30;;;;;;;31.23;5.70;;;8.70;99.90;;;;;;5098472;28;20043;-86
2022/12/29 11:16:30;;;;;;;31.95;5.97;;;8.70;99.90;;;;;;5103223;28;20061;-85
2022/12/29 11:19:25;;;;;;;37.63;5.43;;;8.70;99.90;;;;;;5075528;28;20095;-81
2022/12/29 11:22:22;;;;;;;30.13;5.97;;;8.70;99.90;;;;;;5092140;28;20052;-82
2022/12/29 11:25:12;;;;;;;29.30;5.03;;;8.90;99.90;;;;;;5074205;28;20044;-83
2022/12/29 11:28:16;;;;;;;18.10;3.58;;;9.10;99.90;;;;;;5073247;28;20088;-81
2022/12/29 11:31:04;;;;;;;18.38;3.83;;;9.30;99.90;;;;;;5091531;28;20074;-83
2022/12/29 11:33:50;;;;;;;15.80;3.15;;;9.80;99.90;;;;;;5073619;28;20499;-80
2022/12/29 11:36:38;;;;;;;20.30;4.45;;;10.10;99.90;;;;;;5091406;28;20062;-79
2022/12/29 11:39:49;;;;;;;18.50;3.40;;;10.40;99.90;;;;;;5091110;28;20054;-79
2022/12/29 11:42:47;;;;;;;19.17;3.50;;;10.80;99.90;;;;;;5077638;28;20539;-82
2022/12/29 11:45:36;;;;;;;19.73;3.80;;;11.20;99.90;;;;;;5076363;28;20112;-87
2022/12/29 11:48:25;;;;;;;15.70;2.60;;;11.10;99.90;;;;;;5080707;28;20496;-81
2022/12/29 11:51:13;;;;;;;21.90;2.53;;;11.50;99.90;;;;;;5073178;28;20056;-79
2022/12/29 11:54:03;;;;;;;18.60;2.80;;;11.60;99.90;;;;;;5071897;28;20056;-82
2022/12/29 11:56:51;;;;;;;13.75;2.45;;;11.40;99.90;;;;;;5091325;28;20174;-80
2022/12/29 11:59:51;;;;;;;11.77;2.28;;;11.00;99.90;;;;;;5090992;28;20044;-83
2022/12/29 12:02:45;;;;;;;14.40;2.53;;;11.00;99.90;;;;;;5072617;28;20111;-79
2022/12/29 12:05:36;;;;;;;11.45;1.80;;;11.00;99.90;;;;;;5091279;28;20071;-79
2022/12/29 12:08:46;;;;;;;23.70;3.97;;;10.90;99.90;;;;;;5073052;28;20087;-81
2022/12/29 12:11:41;;;;;;;10.00;2.00;;;10.80;99.90;;;;;;5072193;28;20083;-82
2022/12/29 12:14:31;;;;;;;6.68;2.50;;;10.90;99.90;;;;;;5090556;28;20047;-79
2022/12/29 12:17:37;;;;;;;9.68;1.63;;;11.00;99.90;;;;;;5078117;28;20055;-78
2022/12/29 12:20:46;;;;;;;7.63;1.85;;;11.10;99.90;;;;;;5074064;28;20048;-78
2022/12/29 12:23:44;;;;;;;6.75;1.77;;;11.50;99.90;;;;;;5076009;28;20036;-82
2022/12/29 12:26:46;;;;;;;16.02;3.25;;;12.00;99.90;;;;;;5090771;28;20108;-83
2022/12/29 12:29:43;;;;;;;8.70;1.92;;;12.40;99.90;;;;;;5091026;28;20054;-82
2022/12/29 12:32:48;;;;;;;8.32;1.60;;;12.60;99.90;;;;;;5072406;28;20492;-82
2022/12/29 12:36:07;;;;;;;6.90;1.60;;;12.70;99.90;;;;;;5090155;28;20496;-82
2022/12/29 12:39:14;;;;;;;9.80;2.13;;;13.00;99.90;;;;;;5090715;28;20416;-85
2022/12/29 12:42:13;;;;;;;9.15;1.50;;;13.00;99.90;;;;;;5072252;28;20397;-81
2022/12/29 12:45:02;;;;;;;12.23;2.20;;;13.00;99.90;;;;;;5090063;28;20055;-82
2022/12/29 12:48:09;;;;;;;10.38;1.88;;;13.00;99.90;;;;;;5071990;28;20468;-81
2022/12/29 12:50:55;;;;;;;7.63;2.00;;;12.60;99.90;;;;;;5090494;28;20052;-82
2022/12/29 12:54:01;;;;;;;17.67;4.00;;;12.80;99.90;;;;;;5091798;28;20044;-85
2022/12/29 12:57:06;;;;;;;8.23;2.03;;;12.90;99.90;;;;;;5082752;28;20044;-81
2022/12/29 13:00:12;;;;;;;12.85;2.85;;;12.40;99.90;;;;;;5075834;28;20043;-80
2022/12/29 13:03:21;;;;;;;15.13;2.65;;;12.80;99.90;;;;;;5089844;28;20143;-81
2022/12/29 13:06:26;;;;;;;13.98;2.47;;;12.50;99.90;;;;;;5074041;28;20044;-79
2022/12/29 13:09:12;;;;;;;17.83;2.25;;;12.50;99.90;;;;;;5089583;28;20074;-81
2022/12/29 13:12:36;;;;;;;10.68;2.75;;;12.20;99.90;;;;;;5089041;28;20055;-82
2022/12/29 13:15:43;;;;;;;18.83;3.70;;;11.80;99.90;;;;;;5089640;28;20143;-79
2022/12/29 13:18:48;;;;;;;11.25;2.88;;;11.50;99.90;;;;;;5089777;28;20040;-81
2022/12/29 13:21:54;;;;;;;14.60;2.33;;;11.20;99.90;;;;;;5071025;28;20568;-79
2022/12/29 13:24:47;;;;;;;11.13;2.60;;;11.00;99.90;;;;;;5089618;28;20048;-87
2022/12/29 13:28:03;;;;;;;10.43;2.53;;;10.60;99.90;;;;;;5097731;28;20531;-81
2022/12/29 13:31:28;;;;;;;14.00;3.33;;;10.40;99.90;;;;;;5089988;28;20055;-78
2022/12/29 13:34:26;;;;;;;18.30;2.55;;;10.30;99.90;;;;;;5089291;28;20051;-79
2022/12/29 13:37:18;;;;;;;9.90;2.63;;;10.10;99.90;;;;;;5068789;28;20054;-79
2022/12/29 13:40:16;;;;;;;16.45;2.83;;;10.10;99.90;;;;;;5089441;28;20048;-80
2022/12/29 13:43:03;;;;;;;12.32;2.40;;;10.10;99.90;;;;;;5070799;28;20056;-81
2022/12/29 13:46:21;;;;;;;13.82;2.58;;;10.00;99.90;;;;;;5089410;28;20759;-80
2022/12/29 13:49:18;;;;;;;15.90;2.40;;;9.90;99.90;;;;;;5071138;28;20109;-81
2022/12/29 13:52:24;;;;;;;15.93;2.45;;;10.00;99.90;;;;;;5072161;28;20109;-82
2022/12/29 13:55:33;;;;;;;13.85;2.20;;;10.10;99.90;;;;;;5090518;28;20056;-79
2022/12/29 13:58:41;;;;;;;15.68;2.72;;;10.10;99.90;;;;;;5097100;28;20468;-80
2022/12/29 14:01:35;;;;;;;10.90;2.20;;;10.10;99.90;;;;;;5095102;28;20040;-80
2022/12/29 14:04:25;;;;;;;12.13;2.17;;;9.80;99.90;;;;;;5073670;28;20063;-77
2022/12/29 14:07:17;;;;;;;11.20;2.15;;;9.70;99.90;;;;;;5070009;28;20052;-78
2022/12/29 14:10:04;;;;;;;12.80;2.33;;;9.70;99.90;;;;;;5070412;28;20058;-84
2022/12/29 14:12:51;;;;;;;14.23;2.85;;;9.70;99.90;;;;;;5071287;28;20500;-86
2022/12/29 14:15:42;;;;;;;13.35;2.33;;;9.50;99.90;;;;;;5089002;28;20054;-80
2022/12/29 14:18:32;;;;;;;15.43;2.47;;;9.40;99.90;;;;;;5090911;28;20047;-81
2022/12/29 14:21:28;;;;;;;9.27;1.70;;;9.20;99.90;;;;;;5076518;28;20060;-80
2022/12/29 14:24:43;;;;;;;13.77;2.72;;;9.10;99.90;;;;;;5076962;28;20436;-78
2022/12/29 14:27:29;;;;;;;18.02;3.13;;;9.00;99.90;;;;;;5075423;28;20504;-81
2022/12/29 14:30:46;;;;;;;8.07;1.95;;;8.90;99.90;;;;;;5098636;28;20052;-83
2022/12/29 14:33:34;;;;;;;11.13;3.35;;;8.90;99.90;;;;;;5094272;28;20052;-80
2022/12/29 14:36:20;;;;;;;12.55;2.40;;;8.90;99.90;;;;;;5092987;28;20052;-82
2022/12/29 14:39:28;;;;;;;13.82;2.63;;;8.80;99.90;;;;;;5077669;28;20157;-85
2022/12/29 14:42:22;;;;;;;17.92;3.80;;;8.80;99.90;;;;;;5074291;28;20048;-81
2022/12/29 14:45:32;;;;;;;13.20;1.92;;;8.80;99.90;;;;;;5092082;28;20143;-79
2022/12/29 14:48:43;;;;;;;14.40;1.95;;;8.70;99.90;;;;;;5091336;28;20044;-80
2022/12/29 14:51:34;;;;;;;16.20;2.83;;;8.80;99.90;;;;;;5092124;28;20040;-81
2022/12/29 14:54:33;;;;;;;14.75;2.25;;;8.80;99.90;;;;;;5074344;28;20601;-84
2022/12/29 14:57:27;;;;;;;15.20;2.88;;;8.80;99.90;;;;;;5074669;28;20492;-81
2022/12/29 15:00:18;;;;;;;13.93;2.90;;;8.70;99.90;;;;;;5073129;28;20040;-83
2022/12/29 15:03:12;;;;;;;16.35;2.80;;;8.60;99.90;;;;;;5091827;28;20047;-82
2022/12/29 15:06:11;;;;;;;12.80;2.92;;;8.60;99.90;;;;;;5091769;28;20048;-78
2022/12/29 15:09:06;;;;;;;18.48;2.53;;;8.50;99.90;;;;;;5091855;28;20128;-81
2022/12/29 15:11:56;;;;;;;16.08;2.55;;;8.40;99.90;;;;;;5091127;28;20051;-85
2022/12/29 15:14:53;;;;;;;15.27;2.03;;;8.30;99.90;;;;;;5091611;28;20578;-86
2022/12/29 15:17:40;;;;;;;11.60;2.42;;;8.30;99.90;;;;;;5091962;28;20054;-79
2022/12/29 15:20:31;;;;;;;13.27;2.40;;;8.20;99.90;;;;;;5091682;28;20488;-82
2022/12/29 15:23:17;;;;;;;15.77;2.80;;;8.20;99.90;;;;;;5089912;28;20048;-80
2022/12/29 15:26:07;;;;;;;18.38;3.17;;;8.20;99.90;;;;;;5081788;28;20500;-79